createdAt,value
2023-06-18T00:03:13.575Z,98933.99
2023-06-18T00:05:44.899Z,98933.08
2023-06-18T00:11:03.729Z,98927.39
2023-06-18T00:13:34.405Z,98927.60
2023-06-18T00:16:05.334Z,98924.00
2023-06-18T00:21:24.522Z,98927.29
2023-06-18T00:23:55.440Z,98929.66
2023-06-18T00:26:27.171Z,98934.06
2023-06-18T00:28:57.888Z,98934.48
2023-06-18T00:31:28.635Z,98933.79
2023-06-18T00:34:06.081Z,98932.96
2023-06-18T00:36:40.244Z,98925.77
2023-06-18T00:39:11.416Z,98928.70
2023-06-18T00:41:47.520Z,98931.44
2023-06-18T00:44:21.649Z,98930.25
2023-06-18T00:46:57.453Z,98927.48
2023-06-18T00:52:17.207Z,98929.46
2023-06-18T00:54:48.893Z,98927.42
2023-06-18T00:57:22.565Z,98924.69
2023-06-18T00:59:52.845Z,98927.92
2023-06-18T01:02:32.978Z,98925.33
2023-06-18T01:05:10.352Z,98927.77
2023-06-18T01:07:48.245Z,98925.83
2023-06-18T01:10:23.003Z,98924.52
2023-06-18T01:12:55.412Z,98926.73
2023-06-18T01:15:27.923Z,98930.73
2023-06-18T01:18:00.247Z,98930.28
2023-06-18T01:20:32.230Z,98932.46
2023-06-18T01:23:04.031Z,98935.17
2023-06-18T01:25:40.725Z,98933.98
2023-06-18T01:28:21.752Z,98932.41
2023-06-18T01:30:54.744Z,98932.88
2023-06-18T01:33:29.958Z,98927.57
2023-06-18T01:36:03.190Z,98926.61
2023-06-18T01:38:45.899Z,98926.02
2023-06-18T01:41:28.877Z,98924.34
2023-06-18T01:44:07.661Z,98929.62
2023-06-18T01:46:40.353Z,98934.70
2023-06-18T01:49:13.106Z,98939.93
2023-06-18T01:51:45.079Z,98939.34
2023-06-18T01:54:18.726Z,98931.80
2023-06-18T01:56:48.130Z,98929.94
2023-06-18T01:59:21.586Z,98929.19
2023-06-18T02:01:52.546Z,98927.08
2023-06-18T02:04:23.526Z,98926.67
2023-06-18T02:06:56.756Z,98927.55
2023-06-18T02:09:27.597Z,98930.71
2023-06-18T02:11:58.397Z,98935.16
2023-06-18T02:14:29.398Z,98934.61
2023-06-18T02:17:03.807Z,98931.99
2023-06-18T02:19:34.733Z,98936.20
2023-06-18T02:22:07.101Z,98934.02
2023-06-18T02:24:38.126Z,98936.91
2023-06-18T02:27:11.551Z,98937.50
2023-06-18T02:29:43.479Z,98940.11
2023-06-18T02:32:14.414Z,98943.11
2023-06-18T02:34:45.152Z,98945.89
2023-06-18T02:37:16.018Z,98942.23
2023-06-18T02:39:47.768Z,98946.31
2023-06-18T02:42:22.115Z,98949.39
2023-06-18T02:44:52.852Z,98947.21
2023-06-18T02:47:23.548Z,98949.48
2023-06-18T02:49:54.920Z,98950.33
2023-06-18T02:52:25.618Z,98951.77
2023-06-18T02:54:56.694Z,98948.70
2023-06-18T02:57:27.426Z,98953.15
2023-06-18T02:59:58.349Z,98948.08
2023-06-18T03:02:30.155Z,98956.52
2023-06-18T03:05:01.931Z,98955.95
2023-06-18T03:07:32.835Z,98953.42
2023-06-18T03:10:05.843Z,98954.44
2023-06-18T03:12:36.849Z,98959.92
2023-06-18T03:15:09.470Z,98961.11
2023-06-18T03:17:40.212Z,98960.31
2023-06-18T03:20:13.076Z,98963.86
2023-06-18T03:22:43.961Z,98958.68
2023-06-18T03:25:14.870Z,98969.11
2023-06-18T03:27:45.676Z,98969.77
2023-06-18T03:30:17.391Z,98974.42
2023-06-18T03:32:48.929Z,98979.69
2023-06-18T03:35:20.570Z,98981.48
2023-06-18T03:37:51.733Z,98983.98
2023-06-18T03:40:22.980Z,98980.86
2023-06-18T03:42:54.132Z,98980.48
2023-06-18T03:45:25.276Z,98981.95
2023-06-18T03:47:56.382Z,98983.61
2023-06-18T03:50:27.476Z,98980.77
2023-06-18T03:52:58.627Z,98986.98
2023-06-18T03:55:29.346Z,98988.68
2023-06-18T03:58:00.177Z,98984.71
2023-06-18T04:00:31.071Z,98990.94
2023-06-18T04:03:02.122Z,98991.23
2023-06-18T04:05:33.472Z,98986.49
2023-06-18T04:08:04.392Z,98987.78
2023-06-18T04:10:35.169Z,98991.69
2023-06-18T04:13:05.898Z,98990.05
2023-06-18T04:15:36.920Z,98991.64
2023-06-18T04:18:08.074Z,98991.83
2023-06-18T04:20:39.646Z,98992.29
2023-06-18T04:25:59.530Z,98990.37
2023-06-18T04:28:30.362Z,98995.13
2023-06-18T04:31:01.018Z,98995.10
2023-06-18T04:33:31.750Z,98993.06
2023-06-18T04:36:02.423Z,98990.67
2023-06-18T04:38:33.500Z,98989.20
2023-06-18T04:41:04.230Z,98987.91
2023-06-18T04:43:35.175Z,98985.74
2023-06-18T04:46:06.071Z,98991.26
2023-06-18T04:48:36.889Z,98993.31
2023-06-18T04:51:08.026Z,98994.76
2023-06-18T04:53:38.777Z,98995.73
2023-06-18T04:56:09.767Z,98996.80
2023-06-18T04:58:42.768Z,98998.77
2023-06-18T05:01:13.821Z,99000.09
2023-06-18T05:03:45.236Z,98997.89
2023-06-18T05:06:16.160Z,98999.23
2023-06-18T05:08:48.104Z,98999.95
2023-06-18T05:11:19.446Z,99001.25
2023-06-18T05:13:50.467Z,98998.79
2023-06-18T05:16:21.285Z,99003.76
2023-06-18T05:18:52.029Z,99006.17
2023-06-18T05:21:23.258Z,99006.01
2023-06-18T05:23:53.932Z,99009.86
2023-06-18T05:26:24.688Z,99013.89
2023-06-18T05:28:56.580Z,99005.58
2023-06-18T05:31:29.213Z,99015.92
2023-06-18T05:34:00.015Z,99014.33
2023-06-18T05:36:30.781Z,99011.83
2023-06-18T05:39:01.767Z,99013.15
2023-06-18T05:41:32.929Z,99015.52
2023-06-18T05:44:04.372Z,99020.86
2023-06-18T05:46:35.356Z,99023.90
2023-06-18T05:49:06.507Z,99025.93
2023-06-18T05:51:37.401Z,99024.10
2023-06-18T05:54:08.759Z,99028.33
2023-06-18T05:56:39.591Z,99028.92
2023-06-18T05:59:10.435Z,99034.59
2023-06-18T06:01:41.676Z,99037.58
2023-06-18T06:04:12.766Z,99043.27
2023-06-18T06:06:43.841Z,99040.06
2023-06-18T06:09:14.646Z,99039.80
2023-06-18T06:11:45.722Z,99037.76
2023-06-18T06:14:17.021Z,99037.02
2023-06-18T06:16:48.317Z,99033.14
2023-06-18T06:19:19.199Z,99036.10
2023-06-18T06:21:49.933Z,99038.09
2023-06-18T06:24:21.515Z,99038.17
2023-06-18T06:26:52.645Z,99042.17
2023-06-18T06:29:23.370Z,99039.21
2023-06-18T06:31:54.541Z,99041.45
2023-06-18T06:34:26.308Z,99042.02
2023-06-18T06:36:57.546Z,99040.32
2023-06-18T06:39:28.427Z,99038.71
2023-06-18T06:41:59.462Z,99041.70
2023-06-18T06:44:30.307Z,99037.69
2023-06-18T06:47:01.318Z,99038.67
2023-06-18T06:49:32.266Z,99042.77
2023-06-18T06:52:03.127Z,99042.39
2023-06-18T06:54:33.948Z,99044.86
2023-06-18T06:57:05.408Z,99040.35
2023-06-18T06:59:36.448Z,99042.09
2023-06-18T07:02:07.867Z,99036.81
2023-06-18T07:04:39.101Z,99038.05
2023-06-18T07:07:10.078Z,99043.58
2023-06-18T07:09:41.158Z,99036.45
2023-06-18T07:12:13.274Z,99043.98
2023-06-18T07:14:44.088Z,99044.58
2023-06-18T07:17:14.973Z,99043.39
2023-06-18T07:19:46.058Z,99046.10
2023-06-18T07:22:17.003Z,99043.91
2023-06-18T07:24:47.916Z,99041.27
2023-06-18T07:27:18.837Z,99037.48
2023-06-18T07:29:50.088Z,99040.94
2023-06-18T07:32:22.012Z,99037.61
2023-06-18T07:34:54.220Z,99034.95
2023-06-18T07:37:25.572Z,99031.45
2023-06-18T07:39:56.764Z,99030.39
2023-06-18T07:42:27.607Z,99029.90
2023-06-18T07:44:58.632Z,99030.00
2023-06-18T07:47:29.750Z,99028.44
2023-06-18T07:50:03.771Z,99020.82
2023-06-18T07:52:35.963Z,99027.20
2023-06-18T07:55:08.582Z,99026.60
2023-06-18T07:57:39.764Z,99026.63
2023-06-18T08:00:13.089Z,99024.37
2023-06-18T08:02:44.378Z,99028.16
2023-06-18T08:05:15.370Z,99026.23
2023-06-18T08:07:46.432Z,99021.77
2023-06-18T08:10:17.344Z,99024.88
2023-06-18T08:12:48.524Z,99024.95
2023-06-18T08:15:19.972Z,99031.73
2023-06-18T08:17:51.239Z,99034.09
2023-06-18T08:20:22.627Z,99032.60
2023-06-18T08:22:54.142Z,99032.22
2023-06-18T08:25:25.397Z,99035.08
2023-06-18T08:27:57.727Z,99036.86
2023-06-18T08:30:29.894Z,99034.75
2023-06-18T08:33:01.985Z,99033.76
2023-06-18T08:35:33.122Z,99031.23
2023-06-18T08:38:04.574Z,99035.36
2023-06-18T08:40:53.694Z,99030.83
2023-06-18T08:43:28.060Z,99034.40
2023-06-18T08:46:04.592Z,99034.98
2023-06-18T08:48:41.781Z,99028.27
2023-06-18T08:51:13.888Z,99029.96
2023-06-18T08:53:48.382Z,99033.88
2023-06-18T08:56:26.246Z,99027.78
2023-06-18T08:58:59.344Z,99028.50
2023-06-18T09:01:30.892Z,99027.15
2023-06-18T09:04:03.327Z,99019.59
2023-06-18T09:06:34.904Z,99018.38
2023-06-18T09:09:06.285Z,99013.39
2023-06-18T09:11:37.868Z,99016.69
2023-06-18T09:14:10.923Z,99019.09
2023-06-18T09:16:42.571Z,99018.23
2023-06-18T09:19:14.446Z,99017.33
2023-06-18T09:21:46.001Z,99012.34
2023-06-18T09:24:20.158Z,99012.89
2023-06-18T09:26:52.772Z,99011.86
2023-06-18T09:29:29.702Z,99012.91
2023-06-18T09:32:07.295Z,99016.83
2023-06-18T09:34:39.381Z,99016.23
2023-06-18T09:37:14.880Z,99022.73
2023-06-18T09:39:46.468Z,99018.91
2023-06-18T09:42:17.943Z,99018.55
2023-06-18T09:44:49.863Z,99017.48
2023-06-18T09:47:21.047Z,99014.34
2023-06-18T09:49:52.824Z,99011.92
2023-06-18T09:52:25.800Z,99008.60
2023-06-18T09:54:57.049Z,99007.52
2023-06-18T09:57:28.275Z,99006.13
2023-06-18T10:00:16.405Z,99004.73
2023-06-18T10:02:47.672Z,99005.83
2023-06-18T10:05:19.821Z,98999.84
2023-06-18T10:07:52.183Z,98990.64
2023-06-18T10:10:23.379Z,98989.15
2023-06-18T10:12:58.262Z,98992.04
2023-06-18T10:15:30.697Z,98986.85
2023-06-18T10:18:03.576Z,98983.46
2023-06-18T10:20:36.312Z,98987.73
2023-06-18T10:23:09.042Z,98983.14
2023-06-18T10:25:40.133Z,98977.77
2023-06-18T10:28:11.569Z,98979.91
2023-06-18T10:30:42.976Z,98976.67
2023-06-18T10:33:13.981Z,98976.42
2023-06-18T10:35:45.934Z,98980.38
2023-06-18T10:38:17.415Z,98981.16
2023-06-18T10:40:48.487Z,98976.73
2023-06-18T10:43:26.228Z,98981.73
2023-06-18T10:46:14.579Z,98977.64
2023-06-18T10:49:05.778Z,98979.44
2023-06-18T10:51:36.664Z,98978.11
2023-06-18T10:54:31.045Z,98977.03
2023-06-18T10:57:03.828Z,98979.05
2023-06-18T10:59:46.026Z,98975.20
2023-06-18T11:02:18.052Z,98973.98
2023-06-18T11:04:50.974Z,98974.23
2023-06-18T11:07:25.229Z,98968.30
2023-06-18T11:09:59.248Z,98968.05
2023-06-18T11:12:31.913Z,98970.50
2023-06-18T11:15:13.369Z,98966.78
2023-06-18T11:17:45.537Z,98962.34
2023-06-18T11:20:17.204Z,98959.39
2023-06-18T11:22:48.678Z,98958.14
2023-06-18T11:25:20.402Z,98955.12
2023-06-18T11:27:52.190Z,98951.66
2023-06-18T11:30:23.366Z,98951.83
2023-06-18T11:32:54.231Z,98951.63
2023-06-18T11:35:25.461Z,98954.52
2023-06-18T11:37:58.112Z,98952.70
2023-06-18T11:40:29.258Z,98950.99
2023-06-18T11:43:00.230Z,98955.95
2023-06-18T11:45:31.485Z,98952.29
2023-06-18T11:48:02.574Z,98948.34
2023-06-18T11:50:33.766Z,98945.29
2023-06-18T11:53:08.253Z,98947.47
2023-06-18T11:55:39.248Z,98948.11
2023-06-18T11:58:10.342Z,98952.02
2023-06-18T12:00:41.343Z,98952.63
2023-06-18T12:03:13.560Z,98945.02
2023-06-18T12:05:45.875Z,98949.08
2023-06-18T12:08:17.617Z,98946.77
2023-06-18T12:10:48.606Z,98945.09
2023-06-18T12:13:27.387Z,98943.52
2023-06-18T12:16:04.699Z,98945.91
2023-06-18T12:18:39.762Z,98946.08
2023-06-18T12:21:10.747Z,98941.93
2023-06-18T12:23:41.896Z,98938.02
2023-06-18T12:26:13.048Z,98936.63
2023-06-18T12:28:44.530Z,98936.83
2023-06-18T12:31:15.358Z,98933.27
2023-06-18T12:33:46.798Z,98933.20
2023-06-18T12:36:17.837Z,98933.87
2023-06-18T12:38:50.014Z,98932.68
2023-06-18T12:41:27.080Z,98931.08
2023-06-18T12:43:57.862Z,98923.20
2023-06-18T12:46:29.812Z,98919.46
2023-06-18T12:49:01.361Z,98915.48
2023-06-18T12:51:44.744Z,98913.56
2023-06-18T12:54:20.088Z,98909.79
2023-06-18T12:56:51.806Z,98912.95
2023-06-18T12:59:24.976Z,98907.38
2023-06-18T13:01:56.751Z,98905.99
2023-06-18T13:04:28.630Z,98908.77
2023-06-18T13:06:59.660Z,98905.60
2023-06-18T13:09:30.431Z,98897.88
2023-06-18T13:12:01.464Z,98902.27
2023-06-18T13:14:32.575Z,98902.39
2023-06-18T13:17:04.777Z,98895.88
2023-06-18T13:19:49.787Z,98901.68
2023-06-18T13:22:26.770Z,98905.19
2023-06-18T13:25:00.046Z,98900.02
2023-06-18T13:27:33.814Z,98897.45
2023-06-18T13:30:04.952Z,98890.52
2023-06-18T13:32:35.979Z,98896.62
2023-06-18T13:35:08.061Z,98901.00
2023-06-18T13:37:39.015Z,98901.69
2023-06-18T13:40:12.076Z,98899.20
2023-06-18T13:42:44.304Z,98898.27
2023-06-18T13:45:15.320Z,98900.24
2023-06-18T13:47:46.187Z,98899.05
2023-06-18T13:50:17.826Z,98894.41
2023-06-18T13:52:48.733Z,98890.80
2023-06-18T13:55:20.104Z,98890.95
2023-06-18T13:57:51.160Z,98890.80
2023-06-18T14:00:22.709Z,98883.61
2023-06-18T14:02:53.841Z,98882.77
2023-06-18T14:05:25.341Z,98884.73
2023-06-18T14:07:56.589Z,98887.55
2023-06-18T14:10:27.789Z,98890.58
2023-06-18T14:12:58.775Z,98885.58
2023-06-18T14:15:30.033Z,98885.02
2023-06-18T14:18:01.484Z,98879.89
2023-06-18T14:20:32.607Z,98879.52
2023-06-18T14:23:04.304Z,98880.60
2023-06-18T14:25:35.396Z,98881.64
2023-06-18T14:28:06.581Z,98882.98
2023-06-18T14:30:37.634Z,98878.80
2023-06-18T14:33:09.055Z,98880.98
2023-06-18T14:35:40.116Z,98880.05
2023-06-18T14:38:11.165Z,98880.81
2023-06-18T14:40:42.120Z,98885.46
2023-06-18T14:43:12.947Z,98883.02
2023-06-18T14:45:44.559Z,98879.84
2023-06-18T14:48:15.652Z,98882.75
2023-06-18T14:50:46.895Z,98883.39
2023-06-18T14:53:18.819Z,98887.06
2023-06-18T14:55:50.059Z,98879.48
2023-06-18T14:58:21.471Z,98880.96
2023-06-18T15:00:52.505Z,98879.75
2023-06-18T15:03:23.715Z,98878.75
2023-06-18T15:05:54.706Z,98879.63
2023-06-18T15:08:26.262Z,98877.40
2023-06-18T15:10:57.157Z,98876.88
2023-06-18T15:13:28.813Z,98876.01
2023-06-18T15:16:00.185Z,98874.96
2023-06-18T15:18:31.017Z,98869.62
2023-06-18T15:21:01.901Z,98868.40
2023-06-18T15:23:32.883Z,98864.39
2023-06-18T15:26:04.073Z,98861.73
2023-06-18T15:28:35.355Z,98863.25
2023-06-18T15:31:06.482Z,98862.63
2023-06-18T15:33:37.372Z,98858.94
2023-06-18T15:36:08.835Z,98859.20
2023-06-18T15:38:40.041Z,98861.01
2023-06-18T15:41:11.284Z,98860.06
2023-06-18T15:43:42.136Z,98861.23
2023-06-18T15:46:14.541Z,98860.61
2023-06-18T15:48:47.624Z,98861.39
2023-06-18T15:51:18.757Z,98862.13
2023-06-18T15:53:49.736Z,98860.16
2023-06-18T15:56:22.255Z,98866.86
2023-06-18T15:58:53.208Z,98859.69
2023-06-18T16:01:24.313Z,98860.52
2023-06-18T16:03:55.397Z,98862.64
2023-06-18T16:06:26.342Z,98864.77
2023-06-18T16:08:57.091Z,98861.88
2023-06-18T16:11:28.294Z,98865.21
2023-06-18T16:13:59.989Z,98860.65
2023-06-18T16:16:31.803Z,98862.46
2023-06-18T16:19:02.800Z,98860.33
2023-06-18T16:21:34.677Z,98863.34
2023-06-18T16:24:06.630Z,98864.66
2023-06-18T16:26:38.870Z,98861.36
2023-06-18T16:29:09.776Z,98862.05
2023-06-18T16:31:40.782Z,98862.64
2023-06-18T16:34:11.706Z,98867.04
2023-06-18T16:36:43.605Z,98865.84
2023-06-18T16:39:14.634Z,98866.98
2023-06-18T16:41:45.680Z,98868.30
2023-06-18T16:44:16.793Z,98867.48
2023-06-18T16:46:48.859Z,98866.55
2023-06-18T16:49:19.671Z,98865.19
2023-06-18T16:51:50.548Z,98866.71
2023-06-18T16:54:21.521Z,98867.55
2023-06-18T16:56:52.285Z,98863.84
2023-06-18T16:59:24.931Z,98866.77
2023-06-18T17:01:56.050Z,98868.34
2023-06-18T17:04:27.259Z,98871.52
2023-06-18T17:06:58.502Z,98869.19
2023-06-18T17:09:29.336Z,98868.08
2023-06-18T17:12:00.170Z,98870.91
2023-06-18T17:14:31.269Z,98870.04
2023-06-18T17:17:02.201Z,98868.42
2023-06-18T17:19:33.344Z,98869.42
2023-06-18T17:22:06.662Z,98875.93
2023-06-18T17:24:38.147Z,98874.71
2023-06-18T17:27:09.750Z,98875.99
2023-06-18T17:29:42.812Z,98876.54
2023-06-18T17:32:16.093Z,98874.78
2023-06-18T17:34:47.020Z,98873.41
2023-06-18T17:37:17.943Z,98874.23
2023-06-18T17:39:51.521Z,98876.67
2023-06-18T17:42:20.937Z,98869.76
2023-06-18T17:44:51.933Z,98874.34
2023-06-18T17:47:23.769Z,98874.02
2023-06-18T17:49:54.719Z,98874.41
2023-06-18T17:52:25.700Z,98875.92
2023-06-18T17:54:56.887Z,98875.79
2023-06-18T17:57:27.799Z,98874.16
2023-06-18T17:59:58.706Z,98874.48
2023-06-18T18:02:29.512Z,98874.77
2023-06-18T18:05:00.655Z,98877.85
2023-06-18T18:07:31.470Z,98879.80
2023-06-18T18:10:02.334Z,98882.03
2023-06-18T18:12:33.454Z,98881.89
2023-06-18T18:15:04.733Z,98884.77
2023-06-18T18:17:36.188Z,98881.20
2023-06-18T18:20:08.689Z,98885.18
2023-06-18T18:22:39.599Z,98887.83
2023-06-18T18:25:12.971Z,98885.48
2023-06-18T18:27:43.924Z,98885.51
2023-06-18T18:30:18.166Z,98888.11
2023-06-18T18:32:49.456Z,98887.15
2023-06-18T18:35:21.074Z,98890.76
2023-06-18T18:37:52.113Z,98890.27
2023-06-18T18:40:23.195Z,98889.67
2023-06-18T18:42:57.225Z,98891.02
2023-06-18T18:45:29.023Z,98885.98
2023-06-18T18:48:00.243Z,98889.95
2023-06-18T18:50:31.312Z,98885.17
2023-06-18T18:53:02.284Z,98887.45
2023-06-18T18:55:33.286Z,98889.70
2023-06-18T18:58:04.204Z,98890.63
2023-06-18T19:00:35.191Z,98887.33
2023-06-18T19:03:06.666Z,98891.92
2023-06-18T19:05:37.899Z,98893.79
2023-06-18T19:08:09.852Z,98896.51
2023-06-18T19:10:40.829Z,98895.36
2023-06-18T19:13:12.378Z,98900.08
2023-06-18T19:15:43.605Z,98902.81
2023-06-18T19:18:14.465Z,98904.29
2023-06-18T19:20:45.485Z,98910.09
2023-06-18T19:23:16.750Z,98915.14
2023-06-18T19:25:47.866Z,98917.21
2023-06-18T19:28:18.873Z,98920.88
2023-06-18T19:30:50.271Z,98921.16
2023-06-18T19:33:21.744Z,98926.89
2023-06-18T19:35:52.890Z,98930.92
2023-06-18T19:38:24.300Z,98929.32
2023-06-18T19:40:55.777Z,98932.05
2023-06-18T19:43:26.996Z,98931.27
2023-06-18T19:45:58.227Z,98934.79
2023-06-18T19:48:29.078Z,98939.09
2023-06-18T19:51:00.584Z,98939.30
2023-06-18T19:53:31.844Z,98943.59
2023-06-18T19:56:03.912Z,98944.16
2023-06-18T19:58:35.212Z,98940.48
2023-06-18T20:01:11.205Z,98944.71
2023-06-18T20:03:43.860Z,98954.50
2023-06-18T20:06:15.150Z,98952.18
2023-06-18T20:08:47.338Z,98946.67
2023-06-18T20:11:18.999Z,98955.23
2023-06-18T20:13:51.145Z,98958.27
2023-06-18T20:16:22.473Z,98962.05
2023-06-18T20:18:54.068Z,98963.77
2023-06-18T20:21:25.624Z,98966.17
2023-06-18T20:23:56.674Z,98967.96
2023-06-18T20:26:28.122Z,98962.60
2023-06-18T20:28:59.174Z,98964.21
2023-06-18T20:31:30.228Z,98966.65
2023-06-18T20:34:01.480Z,98969.11
2023-06-18T20:36:34.289Z,98968.73
2023-06-18T20:39:05.921Z,98965.02
2023-06-18T20:41:37.005Z,98963.86
2023-06-18T20:44:08.731Z,98959.81
2023-06-18T20:46:41.087Z,98957.66
2023-06-18T20:49:14.612Z,98956.44
2023-06-18T20:51:46.459Z,98952.05
2023-06-18T20:54:17.439Z,98952.94
2023-06-18T20:56:48.541Z,98957.27
2023-06-18T20:59:19.448Z,98954.81
2023-06-18T21:01:51.579Z,98957.81
2023-06-18T21:04:22.676Z,98963.72
2023-06-18T21:06:53.552Z,98963.00
2023-06-18T21:09:24.591Z,98961.10
2023-06-18T21:11:56.110Z,98963.59
2023-06-18T21:14:27.176Z,98962.32
2023-06-18T21:17:00.624Z,98960.54
2023-06-18T21:19:29.917Z,98956.15
2023-06-18T21:22:00.989Z,98959.33
2023-06-18T21:24:32.280Z,98963.55
2023-06-18T21:27:03.318Z,98966.59
2023-06-18T21:29:34.318Z,98966.89
2023-06-18T21:32:06.022Z,98965.30
2023-06-18T21:34:36.785Z,98962.91
2023-06-18T21:37:08.100Z,98964.58
2023-06-18T21:39:38.980Z,98966.55
2023-06-18T21:42:10.517Z,98969.48
2023-06-18T21:44:41.293Z,98974.87
2023-06-18T21:47:12.252Z,98976.38
2023-06-18T21:49:43.362Z,98981.23
2023-06-18T21:52:14.139Z,98980.96
2023-06-18T21:54:44.986Z,98983.66
2023-06-18T21:57:15.797Z,98979.61
2023-06-18T21:59:47.738Z,98981.84
2023-06-18T22:02:18.799Z,98984.19
2023-06-18T22:04:49.638Z,98989.66
2023-06-18T22:07:20.796Z,98984.75
2023-06-18T22:09:51.734Z,98983.08
2023-06-18T22:12:22.971Z,98981.00
2023-06-18T22:14:54.158Z,98983.10
2023-06-18T22:17:24.908Z,98984.48
2023-06-18T22:19:55.869Z,98985.90
2023-06-18T22:22:26.749Z,98988.04
2023-06-18T22:24:57.596Z,98993.05
2023-06-18T22:27:29.385Z,98992.86
2023-06-18T22:30:00.655Z,98987.05
2023-06-18T22:32:31.484Z,98987.80
2023-06-18T22:35:02.216Z,98989.81
2023-06-18T22:37:32.953Z,98986.56
2023-06-18T22:40:04.300Z,98982.64
2023-06-18T22:42:35.017Z,98981.52
2023-06-18T22:45:06.614Z,98981.35
2023-06-18T22:47:37.438Z,98977.69
2023-06-18T22:50:10.153Z,98979.05
2023-06-18T22:52:41.122Z,98978.48
2023-06-18T22:55:13.221Z,98980.47
2023-06-18T22:57:46.242Z,98981.26
2023-06-18T23:00:18.124Z,98982.29
2023-06-18T23:02:49.092Z,98982.33
2023-06-18T23:05:20.074Z,98982.80
2023-06-18T23:07:51.997Z,98977.73
2023-06-18T23:10:22.952Z,98976.71
2023-06-18T23:12:53.976Z,98978.70
2023-06-18T23:15:24.941Z,98972.70
2023-06-18T23:17:55.761Z,98973.80
2023-06-18T23:20:27.060Z,98976.86
2023-06-18T23:22:57.911Z,98976.00
2023-06-18T23:25:28.828Z,98978.09
2023-06-18T23:27:59.611Z,98978.54
2023-06-18T23:30:36.208Z,98973.77
2023-06-18T23:33:07.665Z,98972.55
2023-06-18T23:35:38.556Z,98971.19
2023-06-18T23:38:12.378Z,98969.29
2023-06-18T23:40:43.223Z,98965.65
2023-06-18T23:43:13.936Z,98962.34
2023-06-18T23:45:44.888Z,98964.91
2023-06-18T23:48:15.618Z,98966.58
2023-06-18T23:50:46.422Z,98968.20
2023-06-18T23:53:17.427Z,98972.14
2023-06-18T23:55:48.128Z,98970.30
2023-06-18T23:58:19.080Z,98966.98
